sensor_id;sensor_type;location;lat;lon;timestamp;temperature;humidity
2907;DHT22;1463;51.070;16.998;2023-05-10T00:01:25;11.10;83.70
2907;DHT22;1463;51.070;16.998;2023-05-10T00:03:52;11.10;84.60
2907;DHT22;1463;51.070;16.998;2023-05-10T00:06:20;11.20;84.90
2907;DHT22;1463;51.070;16.998;2023-05-10T00:08:47;11.00;85.40
2907;DHT22;1463;51.070;16.998;2023-05-10T00:11:16;10.90;87.00
2907;DHT22;1463;51.070;16.998;2023-05-10T00:13:43;10.70;88.40
2907;DHT22;1463;51.070;16.998;2023-05-10T00:16:11;10.80;89.60
2907;DHT22;1463;51.070;16.998;2023-05-10T00:18:39;10.80;90.00
2907;DHT22;1463;51.070;16.998;2023-05-10T00:21:07;10.90;90.10
2907;DHT22;1463;51.070;16.998;2023-05-10T00:23:34;10.90;90.30
2907;DHT22;1463;51.070;16.998;2023-05-10T00:26:01;10.80;90.60
2907;DHT22;1463;51.070;16.998;2023-05-10T00:28:30;10.70;91.20
2907;DHT22;1463;51.070;16.998;2023-05-10T00:30:58;10.70;91.80
2907;DHT22;1463;51.070;16.998;2023-05-10T00:33:25;10.80;92.10
2907;DHT22;1463;51.070;16.998;2023-05-10T00:35:52;10.60;92.70
2907;DHT22;1463;51.070;16.998;2023-05-10T00:38:20;10.70;93.10
2907;DHT22;1463;51.070;16.998;2023-05-10T00:40:47;10.60;93.70
2907;DHT22;1463;51.070;16.998;2023-05-10T00:43:15;10.50;94.60
2907;DHT22;1463;51.070;16.998;2023-05-10T00:45:44;10.40;95.50
2907;DHT22;1463;51.070;16.998;2023-05-10T00:48:11;10.50;95.70
2907;DHT22;1463;51.070;16.998;2023-05-10T00:50:39;10.40;96.40
2907;DHT22;1463;51.070;16.998;2023-05-10T00:53:07;10.40;97.10
2907;DHT22;1463;51.070;16.998;2023-05-10T00:55:36;10.40;97.40
2907;DHT22;1463;51.070;16.998;2023-05-10T00:58:04;10.40;98.00
2907;DHT22;1463;51.070;16.998;2023-05-10T01:00:33;10.30;98.90
2907;DHT22;1463;51.070;16.998;2023-05-10T01:03:02;10.20;99.90
2907;DHT22;1463;51.070;16.998;2023-05-10T01:05:30;10.10;99.90
2907;DHT22;1463;51.070;16.998;2023-05-10T01:07:57;10.20;99.90
2907;DHT22;1463;51.070;16.998;2023-05-10T01:10:25;10.00;99.90
2907;DHT22;1463;51.070;16.998;2023-05-10T01:12:52;10.00;99.90
2907;DHT22;1463;51.070;16.998;2023-05-10T01:15:20;10.00;99.90
2907;DHT22;1463;51.070;16.998;2023-05-10T01:17:49;9.90;99.90
2907;DHT22;1463;51.070;16.998;2023-05-10T01:20:18;10.00;99.90
2907;DHT22;1463;51.070;16.998;2023-05-10T01:23:12;10.00;99.90
2907;DHT22;1463;51.070;16.998;2023-05-10T01:26:14;9.90;99.90
2907;DHT22;1463;51.070;16.998;2023-05-10T01:29:05;9.90;99.90
2907;DHT22;1463;51.070;16.998;2023-05-10T01:32:12;9.90;99.90
2907;DHT22;1463;51.070;16.998;2023-05-10T01:34:48;9.70;99.90
2907;DHT22;1463;51.070;16.998;2023-05-10T01:37:21;9.70;99.90
2907;DHT22;1463;51.070;16.998;2023-05-10T01:39:55;9.80;99.90
2907;DHT22;1463;51.070;16.998;2023-05-10T01:42:26;9.80;99.90
2907;DHT22;1463;51.070;16.998;2023-05-10T01:45:02;9.70;99.90
2907;DHT22;1463;51.070;16.998;2023-05-10T01:47:38;9.60;99.90
2907;DHT22;1463;51.070;16.998;2023-05-10T01:50:12;9.60;99.90
2907;DHT22;1463;51.070;16.998;2023-05-10T01:52:47;9.60;99.90
2907;DHT22;1463;51.070;16.998;2023-05-10T01:55:18;9.50;99.90
2907;DHT22;1463;51.070;16.998;2023-05-10T01:57:50;9.50;99.90
2907;DHT22;1463;51.070;16.998;2023-05-10T02:00:19;9.40;99.90
2907;DHT22;1463;51.070;16.998;2023-05-10T02:02:50;9.60;99.90
2907;DHT22;1463;51.070;16.998;2023-05-10T02:05:19;9.50;99.90
2907;DHT22;1463;51.070;16.998;2023-05-10T02:07:47;9.40;99.90
2907;DHT22;1463;51.070;16.998;2023-05-10T02:10:16;9.60;99.90
2907;DHT22;1463;51.070;16.998;2023-05-10T02:12:47;9.50;99.90
2907;DHT22;1463;51.070;16.998;2023-05-10T02:15:18;9.50;99.90
2907;DHT22;1463;51.070;16.998;2023-05-10T02:17:48;9.40;99.90
2907;DHT22;1463;51.070;16.998;2023-05-10T02:20:17;9.40;99.90
2907;DHT22;1463;51.070;16.998;2023-05-10T02:22:48;9.40;99.90
2907;DHT22;1463;51.070;16.998;2023-05-10T02:25:15;9.30;99.90
2907;DHT22;1463;51.070;16.998;2023-05-10T02:27:45;9.20;99.90
2907;DHT22;1463;51.070;16.998;2023-05-10T02:30:14;9.20;99.90
2907;DHT22;1463;51.070;16.998;2023-05-10T02:32:42;9.30;99.90
2907;DHT22;1463;51.070;16.998;2023-05-10T02:35:12;9.30;99.90
2907;DHT22;1463;51.070;16.998;2023-05-10T02:37:40;9.20;99.90
2907;DHT22;1463;51.070;16.998;2023-05-10T02:40:09;9.30;99.90
2907;DHT22;1463;51.070;16.998;2023-05-10T02:42:39;9.30;99.90
2907;DHT22;1463;51.070;16.998;2023-05-10T02:45:12;9.30;99.90
2907;DHT22;1463;51.070;16.998;2023-05-10T02:47:40;9.10;99.90
2907;DHT22;1463;51.070;16.998;2023-05-10T02:50:11;9.20;99.90
2907;DHT22;1463;51.070;16.998;2023-05-10T02:52:42;9.20;99.90
2907;DHT22;1463;51.070;16.998;2023-05-10T02:55:12;9.20;99.90
2907;DHT22;1463;51.070;16.998;2023-05-10T02:57:49;9.20;99.90
2907;DHT22;1463;51.070;16.998;2023-05-10T03:00:18;9.40;99.90
2907;DHT22;1463;51.070;16.998;2023-05-10T03:02:46;9.30;99.90
2907;DHT22;1463;51.070;16.998;2023-05-10T03:05:15;9.20;99.90
2907;DHT22;1463;51.070;16.998;2023-05-10T03:07:42;9.20;99.90
2907;DHT22;1463;51.070;16.998;2023-05-10T03:10:10;9.20;99.90
2907;DHT22;1463;51.070;16.998;2023-05-10T03:12:49;9.10;99.90
2907;DHT22;1463;51.070;16.998;2023-05-10T03:15:28;9.20;99.90
2907;DHT22;1463;51.070;16.998;2023-05-10T03:18:04;9.20;99.90
2907;DHT22;1463;51.070;16.998;2023-05-10T03:20:36;9.20;99.90
2907;DHT22;1463;51.070;16.998;2023-05-10T03:23:12;9.20;99.90
2907;DHT22;1463;51.070;16.998;2023-05-10T03:25:41;9.10;99.90
2907;DHT22;1463;51.070;16.998;2023-05-10T03:28:10;9.10;99.90
2907;DHT22;1463;51.070;16.998;2023-05-10T03:30:38;9.10;99.90
2907;DHT22;1463;51.070;16.998;2023-05-10T03:33:06;9.10;99.90
2907;DHT22;1463;51.070;16.998;2023-05-10T03:35:35;9.10;99.90
2907;DHT22;1463;51.070;16.998;2023-05-10T03:38:03;9.10;99.90
2907;DHT22;1463;51.070;16.998;2023-05-10T03:40:31;9.20;99.90
2907;DHT22;1463;51.070;16.998;2023-05-10T03:42:58;9.20;99.90
2907;DHT22;1463;51.070;16.998;2023-05-10T03:45:26;9.20;99.90
2907;DHT22;1463;51.070;16.998;2023-05-10T03:47:54;9.40;99.90
2907;DHT22;1463;51.070;16.998;2023-05-10T03:50:21;9.30;99.90
2907;DHT22;1463;51.070;16.998;2023-05-10T03:52:50;9.30;99.90
2907;DHT22;1463;51.070;16.998;2023-05-10T03:55:18;9.20;99.90
2907;DHT22;1463;51.070;16.998;2023-05-10T03:57:45;9.30;99.90
2907;DHT22;1463;51.070;16.998;2023-05-10T04:00:15;9.40;99.90
2907;DHT22;1463;51.070;16.998;2023-05-10T04:02:43;9.30;99.90
2907;DHT22;1463;51.070;16.998;2023-05-10T04:05:11;9.30;99.90
2907;DHT22;1463;51.070;16.998;2023-05-10T04:07:39;9.30;99.90
2907;DHT22;1463;51.070;16.998;2023-05-10T04:10:09;9.30;99.90
2907;DHT22;1463;51.070;16.998;2023-05-10T04:12:36;9.40;99.90
2907;DHT22;1463;51.070;16.998;2023-05-10T04:15:05;9.30;99.90
2907;DHT22;1463;51.070;16.998;2023-05-10T04:17:32;9.30;99.90
2907;DHT22;1463;51.070;16.998;2023-05-10T04:20:00;9.40;99.90
2907;DHT22;1463;51.070;16.998;2023-05-10T04:22:27;9.50;99.90
2907;DHT22;1463;51.070;16.998;2023-05-10T04:24:55;9.50;99.90
2907;DHT22;1463;51.070;16.998;2023-05-10T04:27:24;9.50;99.90
2907;DHT22;1463;51.070;16.998;2023-05-10T04:29:51;9.80;99.90
2907;DHT22;1463;51.070;16.998;2023-05-10T04:32:19;9.70;99.90
2907;DHT22;1463;51.070;16.998;2023-05-10T04:34:46;9.70;99.90
2907;DHT22;1463;51.070;16.998;2023-05-10T04:37:14;9.70;99.90
2907;DHT22;1463;51.070;16.998;2023-05-10T04:39:42;9.80;99.90
2907;DHT22;1463;51.070;16.998;2023-05-10T04:42:09;9.80;99.90
2907;DHT22;1463;51.070;16.998;2023-05-10T04:44:38;10.00;99.90
2907;DHT22;1463;51.070;16.998;2023-05-10T04:47:06;10.00;99.90
2907;DHT22;1463;51.070;16.998;2023-05-10T04:49:34;10.20;99.90
2907;DHT22;1463;51.070;16.998;2023-05-10T04:52:02;10.40;99.90
2907;DHT22;1463;51.070;16.998;2023-05-10T04:54:29;10.20;99.90
2907;DHT22;1463;51.070;16.998;2023-05-10T04:56:57;10.30;99.90
2907;DHT22;1463;51.070;16.998;2023-05-10T04:59:24;10.40;99.90
2907;DHT22;1463;51.070;16.998;2023-05-10T05:01:53;10.40;99.90
2907;DHT22;1463;51.070;16.998;2023-05-10T05:04:21;10.60;99.90
2907;DHT22;1463;51.070;16.998;2023-05-10T05:06:49;10.70;99.90
2907;DHT22;1463;51.070;16.998;2023-05-10T05:09:16;10.70;99.90
2907;DHT22;1463;51.070;16.998;2023-05-10T05:11:44;10.60;99.90
2907;DHT22;1463;51.070;16.998;2023-05-10T05:14:11;10.60;99.90
2907;DHT22;1463;51.070;16.998;2023-05-10T05:16:39;10.70;99.90
2907;DHT22;1463;51.070;16.998;2023-05-10T05:19:07;10.80;99.90
2907;DHT22;1463;51.070;16.998;2023-05-10T05:21:35;10.70;99.90
2907;DHT22;1463;51.070;16.998;2023-05-10T05:24:03;10.50;99.90
2907;DHT22;1463;51.070;16.998;2023-05-10T05:26:31;10.60;99.90
2907;DHT22;1463;51.070;16.998;2023-05-10T05:28:58;10.60;99.90
2907;DHT22;1463;51.070;16.998;2023-05-10T05:31:25;10.80;99.90
2907;DHT22;1463;51.070;16.998;2023-05-10T05:33:53;10.90;99.90
2907;DHT22;1463;51.070;16.998;2023-05-10T05:36:22;11.00;99.90
2907;DHT22;1463;51.070;16.998;2023-05-10T05:38:50;11.10;99.90
2907;DHT22;1463;51.070;16.998;2023-05-10T05:41:17;10.90;99.90
2907;DHT22;1463;51.070;16.998;2023-05-10T05:43:45;11.00;99.90
2907;DHT22;1463;51.070;16.998;2023-05-10T05:46:13;11.10;99.90
2907;DHT22;1463;51.070;16.998;2023-05-10T05:48:40;11.20;99.90
2907;DHT22;1463;51.070;16.998;2023-05-10T05:51:07;11.50;99.90
2907;DHT22;1463;51.070;16.998;2023-05-10T05:53:36;11.50;99.90
2907;DHT22;1463;51.070;16.998;2023-05-10T05:56:04;11.60;99.90
2907;DHT22;1463;51.070;16.998;2023-05-10T05:58:32;11.80;99.90
2907;DHT22;1463;51.070;16.998;2023-05-10T06:00:59;11.90;99.90
2907;DHT22;1463;51.070;16.998;2023-05-10T06:03:27;12.00;99.90
2907;DHT22;1463;51.070;16.998;2023-05-10T06:05:54;12.00;99.90
2907;DHT22;1463;51.070;16.998;2023-05-10T06:08:22;12.00;99.90
2907;DHT22;1463;51.070;16.998;2023-05-10T06:10:50;12.10;99.90
2907;DHT22;1463;51.070;16.998;2023-05-10T06:13:18;12.20;99.90
2907;DHT22;1463;51.070;16.998;2023-05-10T06:15:45;12.20;99.90
2907;DHT22;1463;51.070;16.998;2023-05-10T06:18:13;12.40;99.90
2907;DHT22;1463;51.070;16.998;2023-05-10T06:20:41;12.50;99.90
2907;DHT22;1463;51.070;16.998;2023-05-10T06:23:09;12.50;99.90
2907;DHT22;1463;51.070;16.998;2023-05-10T06:25:36;12.50;99.90
2907;DHT22;1463;51.070;16.998;2023-05-10T06:28:05;12.50;99.90
2907;DHT22;1463;51.070;16.998;2023-05-10T06:30:33;12.30;99.90
2907;DHT22;1463;51.070;16.998;2023-05-10T06:33:00;12.50;99.90
2907;DHT22;1463;51.070;16.998;2023-05-10T06:35:28;12.70;99.90
2907;DHT22;1463;51.070;16.998;2023-05-10T06:37:55;12.90;99.90
2907;DHT22;1463;51.070;16.998;2023-05-10T06:40:23;13.00;99.90
2907;DHT22;1463;51.070;16.998;2023-05-10T06:42:50;12.90;99.90
2907;DHT22;1463;51.070;16.998;2023-05-10T06:45:19;13.00;99.90
2907;DHT22;1463;51.070;16.998;2023-05-10T06:47:47;13.00;99.90
2907;DHT22;1463;51.070;16.998;2023-05-10T06:50:14;13.10;99.90
2907;DHT22;1463;51.070;16.998;2023-05-10T06:52:42;13.20;99.90
2907;DHT22;1463;51.070;16.998;2023-05-10T06:55:09;13.30;99.90
2907;DHT22;1463;51.070;16.998;2023-05-10T06:57:37;13.40;99.90
2907;DHT22;1463;51.070;16.998;2023-05-10T07:00:05;13.60;99.90
2907;DHT22;1463;51.070;16.998;2023-05-10T07:02:36;13.70;99.90
2907;DHT22;1463;51.070;16.998;2023-05-10T07:05:04;13.90;99.00
2907;DHT22;1463;51.070;16.998;2023-05-10T07:07:32;14.00;99.40
2907;DHT22;1463;51.070;16.998;2023-05-10T07:10:00;14.20;98.90
2907;DHT22;1463;51.070;16.998;2023-05-10T07:12:27;14.40;97.40
2907;DHT22;1463;51.070;16.998;2023-05-10T07:14:54;14.60;97.60
2907;DHT22;1463;51.070;16.998;2023-05-10T07:17:22;14.50;96.20
2907;DHT22;1463;51.070;16.998;2023-05-10T07:19:51;14.40;96.20
2907;DHT22;1463;51.070;16.998;2023-05-10T07:22:18;14.50;95.80
2907;DHT22;1463;51.070;16.998;2023-05-10T07:24:46;14.60;95.70
2907;DHT22;1463;51.070;16.998;2023-05-10T07:27:13;14.60;95.40
2907;DHT22;1463;51.070;16.998;2023-05-10T07:29:40;14.80;95.60
2907;DHT22;1463;51.070;16.998;2023-05-10T07:32:09;14.80;95.70
2907;DHT22;1463;51.070;16.998;2023-05-10T07:34:37;14.90;94.90
2907;DHT22;1463;51.070;16.998;2023-05-10T07:37:06;14.90;95.00
2907;DHT22;1463;51.070;16.998;2023-05-10T07:39:33;15.00;94.50
2907;DHT22;1463;51.070;16.998;2023-05-10T07:42:01;15.10;94.50
2907;DHT22;1463;51.070;16.998;2023-05-10T07:44:28;15.20;93.90
2907;DHT22;1463;51.070;16.998;2023-05-10T07:46:56;15.30;94.30
2907;DHT22;1463;51.070;16.998;2023-05-10T07:49:23;15.50;94.30
2907;DHT22;1463;51.070;16.998;2023-05-10T07:51:51;15.60;93.80
2907;DHT22;1463;51.070;16.998;2023-05-10T07:54:20;15.70;93.50
2907;DHT22;1463;51.070;16.998;2023-05-10T07:56:47;15.80;93.30
2907;DHT22;1463;51.070;16.998;2023-05-10T07:59:16;16.00;93.10
2907;DHT22;1463;51.070;16.998;2023-05-10T08:01:44;16.10;92.60
2907;DHT22;1463;51.070;16.998;2023-05-10T08:04:11;16.20;92.20
2907;DHT22;1463;51.070;16.998;2023-05-10T08:06:40;16.10;91.90
2907;DHT22;1463;51.070;16.998;2023-05-10T08:09:07;16.20;92.20
2907;DHT22;1463;51.070;16.998;2023-05-10T08:11:36;16.40;92.30
2907;DHT22;1463;51.070;16.998;2023-05-10T08:14:04;16.60;91.80
2907;DHT22;1463;51.070;16.998;2023-05-10T08:16:31;16.70;91.30
2907;DHT22;1463;51.070;16.998;2023-05-10T08:19:00;16.70;91.20
2907;DHT22;1463;51.070;16.998;2023-05-10T08:21:27;16.80;90.90
2907;DHT22;1463;51.070;16.998;2023-05-10T08:23:55;16.90;91.20
2907;DHT22;1463;51.070;16.998;2023-05-10T08:26:22;17.00;90.60
2907;DHT22;1463;51.070;16.998;2023-05-10T08:28:51;17.20;90.10
2907;DHT22;1463;51.070;16.998;2023-05-10T08:31:19;17.20;90.20
2907;DHT22;1463;51.070;16.998;2023-05-10T08:33:46;17.30;90.10
2907;DHT22;1463;51.070;16.998;2023-05-10T08:36:13;17.40;90.10
2907;DHT22;1463;51.070;16.998;2023-05-10T08:38:45;17.60;89.00
2907;DHT22;1463;51.070;16.998;2023-05-10T08:41:13;17.60;87.50
2907;DHT22;1463;51.070;16.998;2023-05-10T08:43:41;17.60;87.30
2907;DHT22;1463;51.070;16.998;2023-05-10T08:46:16;17.50;87.00
2907;DHT22;1463;51.070;16.998;2023-05-10T08:48:45;17.60;87.00
2907;DHT22;1463;51.070;16.998;2023-05-10T08:51:14;17.60;86.80
2907;DHT22;1463;51.070;16.998;2023-05-10T08:53:42;17.70;86.90
2907;DHT22;1463;51.070;16.998;2023-05-10T08:56:09;17.70;87.70
2907;DHT22;1463;51.070;16.998;2023-05-10T08:58:37;17.90;86.70
2907;DHT22;1463;51.070;16.998;2023-05-10T09:01:05;17.90;85.60
2907;DHT22;1463;51.070;16.998;2023-05-10T09:03:35;17.90;86.80
2907;DHT22;1463;51.070;16.998;2023-05-10T09:06:05;18.10;86.90
2907;DHT22;1463;51.070;16.998;2023-05-10T09:08:33;18.10;86.30
2907;DHT22;1463;51.070;16.998;2023-05-10T09:11:00;18.20;86.00
2907;DHT22;1463;51.070;16.998;2023-05-10T09:13:28;18.30;86.40
2907;DHT22;1463;51.070;16.998;2023-05-10T09:15:56;18.40;84.40
2907;DHT22;1463;51.070;16.998;2023-05-10T09:18:25;18.40;85.10
2907;DHT22;1463;51.070;16.998;2023-05-10T09:20:54;18.40;84.90
2907;DHT22;1463;51.070;16.998;2023-05-10T09:23:22;18.50;85.30
2907;DHT22;1463;51.070;16.998;2023-05-10T09:26:02;18.60;83.10
2907;DHT22;1463;51.070;16.998;2023-05-10T09:28:32;18.80;84.30
2907;DHT22;1463;51.070;16.998;2023-05-10T09:31:00;18.60;82.00
2907;DHT22;1463;51.070;16.998;2023-05-10T09:33:28;18.60;83.00
2907;DHT22;1463;51.070;16.998;2023-05-10T09:36:06;18.60;81.10
2907;DHT22;1463;51.070;16.998;2023-05-10T09:38:45;18.60;80.90
2907;DHT22;1463;51.070;16.998;2023-05-10T09:41:17;18.80;81.60
2907;DHT22;1463;51.070;16.998;2023-05-10T09:43:45;18.90;82.70
2907;DHT22;1463;51.070;16.998;2023-05-10T09:46:13;19.00;81.80
2907;DHT22;1463;51.070;16.998;2023-05-10T09:48:43;19.00;81.70
2907;DHT22;1463;51.070;16.998;2023-05-10T09:51:19;19.00;79.50
2907;DHT22;1463;51.070;16.998;2023-05-10T09:53:46;19.10;80.30
2907;DHT22;1463;51.070;16.998;2023-05-10T09:56:34;19.20;79.50
2907;DHT22;1463;51.070;16.998;2023-05-10T09:59:05;19.40;78.60
2907;DHT22;1463;51.070;16.998;2023-05-10T10:01:33;19.30;78.30
2907;DHT22;1463;51.070;16.998;2023-05-10T10:04:03;19.40;76.60
2907;DHT22;1463;51.070;16.998;2023-05-10T10:06:37;19.40;77.00
2907;DHT22;1463;51.070;16.998;2023-05-10T10:09:05;19.40;75.30
2907;DHT22;1463;51.070;16.998;2023-05-10T10:11:34;19.50;75.30
2907;DHT22;1463;51.070;16.998;2023-05-10T10:14:02;19.60;75.00
2907;DHT22;1463;51.070;16.998;2023-05-10T10:16:30;19.80;75.10
2907;DHT22;1463;51.070;16.998;2023-05-10T10:18:58;19.70;73.90
2907;DHT22;1463;51.070;16.998;2023-05-10T10:21:25;19.60;75.00
2907;DHT22;1463;51.070;16.998;2023-05-10T10:23:55;19.60;74.00
2907;DHT22;1463;51.070;16.998;2023-05-10T10:26:22;19.70;73.50
2907;DHT22;1463;51.070;16.998;2023-05-10T10:28:58;19.80;75.00
2907;DHT22;1463;51.070;16.998;2023-05-10T10:31:47;20.00;74.40
2907;DHT22;1463;51.070;16.998;2023-05-10T10:34:25;20.00;73.30
2907;DHT22;1463;51.070;16.998;2023-05-10T10:36:54;20.00;74.30
2907;DHT22;1463;51.070;16.998;2023-05-10T10:39:24;20.20;73.50
2907;DHT22;1463;51.070;16.998;2023-05-10T10:41:53;20.20;72.00
2907;DHT22;1463;51.070;16.998;2023-05-10T10:44:25;20.10;71.70
2907;DHT22;1463;51.070;16.998;2023-05-10T10:49:49;20.20;72.30
2907;DHT22;1463;51.070;16.998;2023-05-10T10:52:23;20.30;72.80
2907;DHT22;1463;51.070;16.998;2023-05-10T10:54:59;20.20;72.40
2907;DHT22;1463;51.070;16.998;2023-05-10T10:57:28;20.40;72.50
2907;DHT22;1463;51.070;16.998;2023-05-10T11:00:19;20.40;72.40
2907;DHT22;1463;51.070;16.998;2023-05-10T11:02:47;20.60;72.00
2907;DHT22;1463;51.070;16.998;2023-05-10T11:05:36;20.70;71.70
2907;DHT22;1463;51.070;16.998;2023-05-10T11:08:12;20.80;70.00
2907;DHT22;1463;51.070;16.998;2023-05-10T11:10:50;20.70;70.60
2907;DHT22;1463;51.070;16.998;2023-05-10T11:13:27;20.80;71.50
2907;DHT22;1463;51.070;16.998;2023-05-10T11:15:56;20.90;70.40
2907;DHT22;1463;51.070;16.998;2023-05-10T11:18:26;21.00;71.00
2907;DHT22;1463;51.070;16.998;2023-05-10T11:20:57;21.10;69.00
2907;DHT22;1463;51.070;16.998;2023-05-10T11:23:31;21.20;68.00
2907;DHT22;1463;51.070;16.998;2023-05-10T11:26:00;21.20;68.00
2907;DHT22;1463;51.070;16.998;2023-05-10T11:28:28;20.90;68.10
2907;DHT22;1463;51.070;16.998;2023-05-10T11:30:55;20.90;69.50
2907;DHT22;1463;51.070;16.998;2023-05-10T11:33:24;20.90;68.50
2907;DHT22;1463;51.070;16.998;2023-05-10T11:35:51;21.00;68.80
2907;DHT22;1463;51.070;16.998;2023-05-10T11:38:18;21.10;68.70
2907;DHT22;1463;51.070;16.998;2023-05-10T11:40:46;21.10;67.80
2907;DHT22;1463;51.070;16.998;2023-05-10T11:43:15;21.10;67.40
2907;DHT22;1463;51.070;16.998;2023-05-10T11:45:43;20.90;67.10
2907;DHT22;1463;51.070;16.998;2023-05-10T11:48:12;20.90;67.70
2907;DHT22;1463;51.070;16.998;2023-05-10T11:50:39;21.00;67.30
2907;DHT22;1463;51.070;16.998;2023-05-10T11:53:07;21.10;66.30
2907;DHT22;1463;51.070;16.998;2023-05-10T11:55:34;21.40;66.20
2907;DHT22;1463;51.070;16.998;2023-05-10T11:58:02;21.20;66.00
2907;DHT22;1463;51.070;16.998;2023-05-10T12:00:32;21.10;65.60
2907;DHT22;1463;51.070;16.998;2023-05-10T12:03:00;21.00;66.00
2907;DHT22;1463;51.070;16.998;2023-05-10T12:05:32;21.10;65.50
2907;DHT22;1463;51.070;16.998;2023-05-10T12:08:13;21.00;66.00
2907;DHT22;1463;51.070;16.998;2023-05-10T12:10:41;20.80;66.70
2907;DHT22;1463;51.070;16.998;2023-05-10T12:13:11;20.80;67.00
2907;DHT22;1463;51.070;16.998;2023-05-10T12:15:42;20.70;67.20
2907;DHT22;1463;51.070;16.998;2023-05-10T12:18:10;20.70;66.00
2907;DHT22;1463;51.070;16.998;2023-05-10T12:20:38;20.70;65.60
2907;DHT22;1463;51.070;16.998;2023-05-10T12:23:08;20.40;65.50
2907;DHT22;1463;51.070;16.998;2023-05-10T12:25:37;20.30;66.70
2907;DHT22;1463;51.070;16.998;2023-05-10T12:28:07;20.40;67.20
2907;DHT22;1463;51.070;16.998;2023-05-10T12:30:35;20.40;65.60
2907;DHT22;1463;51.070;16.998;2023-05-10T12:33:10;20.60;66.00
2907;DHT22;1463;51.070;16.998;2023-05-10T12:35:45;20.80;65.80
2907;DHT22;1463;51.070;16.998;2023-05-10T12:38:27;20.90;65.40
2907;DHT22;1463;51.070;16.998;2023-05-10T12:40:55;20.80;64.60
2907;DHT22;1463;51.070;16.998;2023-05-10T12:43:23;21.00;64.90
2907;DHT22;1463;51.070;16.998;2023-05-10T12:45:50;21.00;64.60
2907;DHT22;1463;51.070;16.998;2023-05-10T12:48:19;20.80;63.80
2907;DHT22;1463;51.070;16.998;2023-05-10T12:50:47;20.70;65.50
2907;DHT22;1463;51.070;16.998;2023-05-10T12:53:15;20.70;66.10
2907;DHT22;1463;51.070;16.998;2023-05-10T12:55:43;20.60;66.20
2907;DHT22;1463;51.070;16.998;2023-05-10T12:58:11;20.70;66.60
2907;DHT22;1463;51.070;16.998;2023-05-10T13:00:38;20.60;64.10
2907;DHT22;1463;51.070;16.998;2023-05-10T13:03:05;20.50;63.60
2907;DHT22;1463;51.070;16.998;2023-05-10T13:05:34;20.50;65.10
2907;DHT22;1463;51.070;16.998;2023-05-10T13:08:02;20.60;64.80
2907;DHT22;1463;51.070;16.998;2023-05-10T13:10:30;20.70;65.50
2907;DHT22;1463;51.070;16.998;2023-05-10T13:12:58;20.70;65.50
2907;DHT22;1463;51.070;16.998;2023-05-10T13:15:26;20.80;65.70
2907;DHT22;1463;51.070;16.998;2023-05-10T13:17:54;20.70;65.70
2907;DHT22;1463;51.070;16.998;2023-05-10T13:20:21;20.70;64.90
2907;DHT22;1463;51.070;16.998;2023-05-10T13:22:50;20.60;65.60
2907;DHT22;1463;51.070;16.998;2023-05-10T13:25:18;20.60;65.70
2907;DHT22;1463;51.070;16.998;2023-05-10T13:27:45;20.60;65.30
2907;DHT22;1463;51.070;16.998;2023-05-10T13:30:13;20.60;64.90
2907;DHT22;1463;51.070;16.998;2023-05-10T13:32:40;20.70;64.90
2907;DHT22;1463;51.070;16.998;2023-05-10T13:35:08;20.60;63.60
2907;DHT22;1463;51.070;16.998;2023-05-10T13:37:36;20.60;62.50
2907;DHT22;1463;51.070;16.998;2023-05-10T13:40:06;20.60;63.60
2907;DHT22;1463;51.070;16.998;2023-05-10T13:42:34;20.80;62.50
2907;DHT22;1463;51.070;16.998;2023-05-10T13:45:02;20.80;63.00
2907;DHT22;1463;51.070;16.998;2023-05-10T13:47:29;20.90;62.60
2907;DHT22;1463;51.070;16.998;2023-05-10T13:49:58;20.70;62.90
2907;DHT22;1463;51.070;16.998;2023-05-10T13:52:26;20.60;63.60
2907;DHT22;1463;51.070;16.998;2023-05-10T13:54:54;20.80;63.50
2907;DHT22;1463;51.070;16.998;2023-05-10T13:57:23;20.90;63.50
2907;DHT22;1463;51.070;16.998;2023-05-10T13:59:51;20.90;63.60
2907;DHT22;1463;51.070;16.998;2023-05-10T14:02:19;20.80;64.00
2907;DHT22;1463;51.070;16.998;2023-05-10T14:04:47;20.70;63.70
2907;DHT22;1463;51.070;16.998;2023-05-10T14:07:14;20.80;62.70
2907;DHT22;1463;51.070;16.998;2023-05-10T14:09:42;20.60;62.10
2907;DHT22;1463;51.070;16.998;2023-05-10T14:12:09;20.60;62.60
2907;DHT22;1463;51.070;16.998;2023-05-10T14:14:39;20.50;62.70
2907;DHT22;1463;51.070;16.998;2023-05-10T14:17:07;20.50;63.20
2907;DHT22;1463;51.070;16.998;2023-05-10T14:19:36;20.50;63.10
2907;DHT22;1463;51.070;16.998;2023-05-10T14:22:05;20.50;62.50
2907;DHT22;1463;51.070;16.998;2023-05-10T14:24:33;20.60;63.40
2907;DHT22;1463;51.070;16.998;2023-05-10T14:27:02;20.60;63.30
2907;DHT22;1463;51.070;16.998;2023-05-10T14:29:29;20.70;63.10
2907;DHT22;1463;51.070;16.998;2023-05-10T14:31:58;20.80;63.10
2907;DHT22;1463;51.070;16.998;2023-05-10T14:34:26;20.70;62.40
2907;DHT22;1463;51.070;16.998;2023-05-10T14:36:54;20.70;62.80
2907;DHT22;1463;51.070;16.998;2023-05-10T14:39:21;20.70;62.40
2907;DHT22;1463;51.070;16.998;2023-05-10T14:41:49;20.60;62.90
2907;DHT22;1463;51.070;16.998;2023-05-10T14:44:18;20.60;61.90
2907;DHT22;1463;51.070;16.998;2023-05-10T14:46:46;20.60;61.70
2907;DHT22;1463;51.070;16.998;2023-05-10T14:49:17;20.60;62.90
2907;DHT22;1463;51.070;16.998;2023-05-10T14:51:44;20.60;61.90
2907;DHT22;1463;51.070;16.998;2023-05-10T14:54:11;20.60;62.30
2907;DHT22;1463;51.070;16.998;2023-05-10T14:56:39;20.60;62.40
2907;DHT22;1463;51.070;16.998;2023-05-10T14:59:07;20.70;62.20
2907;DHT22;1463;51.070;16.998;2023-05-10T15:01:34;20.80;62.20
2907;DHT22;1463;51.070;16.998;2023-05-10T15:04:03;20.80;62.00
2907;DHT22;1463;51.070;16.998;2023-05-10T15:06:33;20.80;60.50
2907;DHT22;1463;51.070;16.998;2023-05-10T15:09:04;20.70;61.10
2907;DHT22;1463;51.070;16.998;2023-05-10T15:11:33;20.70;61.10
2907;DHT22;1463;51.070;16.998;2023-05-10T15:14:03;20.70;61.70
2907;DHT22;1463;51.070;16.998;2023-05-10T15:16:32;20.70;60.60
2907;DHT22;1463;51.070;16.998;2023-05-10T15:18:59;20.70;60.30
2907;DHT22;1463;51.070;16.998;2023-05-10T15:21:27;20.60;60.50
2907;DHT22;1463;51.070;16.998;2023-05-10T15:23:56;20.50;60.10
2907;DHT22;1463;51.070;16.998;2023-05-10T15:26:24;20.50;60.80
2907;DHT22;1463;51.070;16.998;2023-05-10T15:28:52;20.50;60.90
2907;DHT22;1463;51.070;16.998;2023-05-10T15:31:20;20.50;61.20
2907;DHT22;1463;51.070;16.998;2023-05-10T15:33:48;20.60;61.50
2907;DHT22;1463;51.070;16.998;2023-05-10T15:36:15;20.60;61.40
2907;DHT22;1463;51.070;16.998;2023-05-10T15:38:43;20.70;60.90
2907;DHT22;1463;51.070;16.998;2023-05-10T15:41:12;20.60;61.00
2907;DHT22;1463;51.070;16.998;2023-05-10T15:43:40;20.60;61.30
2907;DHT22;1463;51.070;16.998;2023-05-10T15:46:07;20.60;61.50
2907;DHT22;1463;51.070;16.998;2023-05-10T15:48:35;20.50;62.30
2907;DHT22;1463;51.070;16.998;2023-05-10T15:51:02;20.60;62.20
2907;DHT22;1463;51.070;16.998;2023-05-10T15:53:30;20.60;62.10
2907;DHT22;1463;51.070;16.998;2023-05-10T15:55:57;20.50;60.80
2907;DHT22;1463;51.070;16.998;2023-05-10T15:58:26;20.40;60.70
2907;DHT22;1463;51.070;16.998;2023-05-10T16:00:54;20.30;61.00
2907;DHT22;1463;51.070;16.998;2023-05-10T16:03:22;20.30;61.30
2907;DHT22;1463;51.070;16.998;2023-05-10T16:05:49;20.30;61.30